Flight Track Log - Related Links

Times and Time Zones

All times are in EST time to prevent confusion due to time zone crossing. See the N896P flight status page for this flight to view local times or setup timezone preferences in your user account.

Time Position Orientation Groundspeed Altitude Reporting Facility
EST Latitude Longitude Course Direction KTS MPH feet Rate Location/Type
Wed 09:17:01 PM 32.7583 -97.3542 183° South 210 242 4,300  Level Fort Worth Center
Wed 09:18:01 PM 32.7436 -97.4061 251° West 236 272 7,700 3,650 Climbing Fort Worth Center
Wed 09:19:01 PM 32.7936 -97.4556 320° Northwest 221 254 11,600 3,500 Climbing Fort Worth Center
Wed 09:20:01 PM 32.8439 -97.5050 320° Northwest 226 260 14,700 3,050 Climbing Fort Worth Center
Wed 09:21:01 PM 32.9000 -97.5569 322° Northwest 256 295 17,700 2,550 Climbing Fort Worth Center
Wed 09:22:01 PM 32.9564 -97.6114 321° Northwest 256 295 19,800 2,200 Climbing Fort Worth Center
Wed 09:23:01 PM 33.0106 -97.6611 322° Northwest 256 295 22,100 2,300 Climbing Fort Worth Center
Wed 09:24:01 PM 33.0689 -97.7133 323° Northwest 261 300 24,400 2,050 Climbing Fort Worth Center
Wed 09:25:01 PM 33.1106 -97.7856 305° West 254 292 26,200 1,700 Climbing Fort Worth Center
Wed 09:26:01 PM 33.1372 -97.8725 290° West 259 298 27,800 1,600 Climbing Fort Worth Center
Wed 09:27:01 PM 33.1642 -97.9569 291° West 270 311 29,400 1,400 Climbing Fort Worth Center
Wed 09:28:01 PM 33.1928 -98.0489 290° West 281 323 30,600 1,200 Climbing Fort Worth Center
Wed 09:29:01 PM 33.2217 -98.1461 290° West 299 344 31,800 1,200 Climbing Fort Worth Center
Wed 09:30:01 PM 33.2522 -98.2431 291° West 311 358 33,000 1,140 Climbing Fort Worth Center
Wed 09:31:02 PM 33.2914 -98.3356 297° West 311 358 34,100 1,100 Climbing Fort Worth Center
Wed 09:32:01 PM 33.3639 -98.3883 329° Northwest 301 346 35,200 1,008 Climbing Fort Worth Center
Wed 09:33:01 PM 33.4511 -98.4442 332° Northwest 313 360 36,100 850 Climbing Fort Worth Center
Wed 09:34:01 PM 33.5342 -98.4925 334° Northwest 318 366 36,900 650 Climbing Fort Worth Center
Wed 09:35:01 PM 33.6131 -98.5483 329° Northwest 341 392 37,400 500 Climbing Fort Worth Center
Wed 09:36:01 PM 33.6961 -98.6019 332° Northwest 341 392 37,900 500 Climbing Fort Worth Center
Wed 09:37:01 PM 33.7811 -98.6556 332° Northwest 346 398 38,400 496 Climbing Fort Worth Center
Wed 09:38:02 PM 33.8681 -98.7117 332° Northwest 346 398 38,900 500 Climbing Fort Worth Center
Wed 09:39:01 PM 33.9572 -98.7656 333° Northwest 346 398 39,400 555 Climbing Fort Worth Center
Wed 09:40:01 PM 34.0483 -98.8272 331° Northwest 341 392 40,000 300 Climbing Fort Worth Center
Wed 09:41:01 PM 34.1250 -98.8861 328° Northwest 348 400 40,000  Level Fort Worth Center
Wed 09:42:01 PM 34.2203 -98.9481 332° Northwest 364 419 40,000  Level Fort Worth Center
Wed 09:43:02 PM 34.3133 -99.0075 332° Northwest 369 425 40,000  Level Fort Worth Center
Wed 09:44:01 PM 34.4044 -99.0672 332° Northwest 374 430 40,000  Level Fort Worth Center
Wed 09:45:01 PM 34.5017 -99.1244 334° Northwest 374 430 40,000  Level Fort Worth Center
Wed 09:46:01 PM 34.5947 -99.1844 332° Northwest 374 430 40,000  Level Fort Worth Center
Wed 09:47:01 PM 34.6878 -99.2469 331° Northwest 369 425 40,000  Level Fort Worth Center
Wed 09:48:01 PM 34.7806 -99.3097 331° Northwest 374 430 40,000  Level Fort Worth Center
Wed 09:49:01 PM 34.8736 -99.3725 331° Northwest 374 430 40,000  Level Fort Worth Center
Wed 09:50:01 PM 34.9664 -99.4328 332° Northwest 374 430 40,000  Level Fort Worth Center
Wed 09:51:01 PM 35.0592 -99.4958 331° Northwest 374 430 40,000  Level Fort Worth Center
Wed 09:52:01 PM 35.1542 -99.5592 331° Northwest 374 430 40,000  Level Fort Worth Center
Wed 09:53:01 PM 35.2469 -99.6253 330° Northwest 374 430 40,000  Level Fort Worth Center
Wed 09:55:23 PM 35.4775 -99.7792 331° Northwest 388 447 40,000  Level Kansas City Center
Wed 09:56:24 PM 35.5742 -99.8456 331° Northwest 391 450 40,000  Level Kansas City Center
Wed 09:57:26 PM 35.6711 -99.9106 331° Northwest 393 452 40,000  Level Kansas City Center
Wed 09:58:27 PM 35.7681 -99.9764 331° Northwest 394 453 40,000  Level Kansas City Center
Wed 09:59:29 PM 35.8642 -100.0428 331° Northwest 393 452 40,000 244 Level Kansas City Center
Wed 10:00:30 PM 35.9589 -100.1075 331° Northwest 390 449 40,500 488 Climbing Kansas City Center
Wed 10:01:32 PM 36.0522 -100.1714 331° Northwest 386 444 41,000 244 Climbing Kansas City Center
Wed 10:02:33 PM 36.1439 -100.2347 331° Northwest 380 437 41,000  Level Kansas City Center
Wed 10:03:35 PM 36.2367 -100.2983 331° Northwest 378 435 41,000  Level Kansas City Center
Wed 10:04:36 PM 36.3286 -100.3633 330° Northwest 378 435 41,000  Level Kansas City Center
Wed 10:05:38 PM 36.4231 -100.4286 331° Northwest 383 441 41,000  Level Kansas City Center
Wed 10:06:39 PM 36.5269 -100.5003 331° Northwest 385 443 41,000  Level Kansas City Center
Wed 10:07:40 PM 36.6314 -100.5733 331° Northwest 385 443 41,000  Level Kansas City Center
Wed 10:08:42 PM 36.7211 -100.6358 331° Northwest 385 443 41,000  Level Kansas City Center
Wed 10:09:43 PM 36.8111 -100.6992 331° Northwest 387 445 41,000 195 Level Kansas City Center
Wed 10:10:45 PM 36.9144 -100.7733 330° Northwest 383 441 41,400 341 Climbing Kansas City Center
Wed 10:11:46 PM 37.0022 -100.8350 331° Northwest 379 436 41,700 293 Climbing Kansas City Center
Wed 10:12:48 PM 37.1025 -100.9064 330° Northwest 373 429 42,000 293 Climbing Kansas City Center
Wed 10:13:49 PM 37.1886 -100.9681 330° Northwest 371 427 42,300 295 Climbing Kansas City Center
Wed 10:14:50 PM 37.2728 -101.0292 330° Northwest 366 421 42,600 293 Climbing Kansas City Center
Wed 10:15:52 PM 37.3694 -101.0992 330° Northwest 359 413 42,900 195 Climbing Kansas City Center
Wed 10:16:53 PM 37.4519 -101.1592 330° Northwest 356 410 43,000 49 Climbing Kansas City Center
Wed 10:17:55 PM 37.5358 -101.2192 330° Northwest 357 411 43,000  Level Kansas City Center
Wed 10:18:56 PM 37.6350 -101.2908 330° Northwest 363 418 43,000  Level Kansas City Center
Wed 10:19:57 PM 37.7194 -101.3525 330° Northwest 365 420 43,000  Level Kansas City Center
Wed 10:20:58 PM 37.8192 -101.4247 330° Northwest 367 422 43,000  Level Kansas City Center
Wed 10:22:00 PM 37.9036 -101.4858 330° Northwest 365 420 43,000  Level Kansas City Center
Wed 10:23:01 PM 37.9886 -101.5475 330° Northwest 367 422 43,000  Level Kansas City Center
Wed 10:24:02 PM 38.0867 -101.6189 330° Northwest 364 419 43,000  Level Kansas City Center
Wed 10:25:04 PM 38.1711 -101.6822 329° Northwest 367 422 43,000  Level Kansas City Center
Wed 10:26:05 PM 38.2556 -101.7447 330° Northwest 366 421 43,000  Level Kansas City Center
Wed 10:27:06 PM 38.3542 -101.8167 330° Northwest 366 421 43,000  Level Kansas City Center
Wed 10:28:13 PM 38.4525 -101.8889 330° Northwest 366 421 43,000  Level Denver Center
Wed 10:29:15 PM 38.5378 -101.9533 329° Northwest 370 426 43,000  Level Denver Center
Wed 10:30:16 PM 38.6378 -102.0278 330° Northwest 372 428 43,000  Level Denver Center
Wed 10:31:18 PM 38.7228 -102.0911 330° Northwest 369 425 43,000  Level Denver Center
Wed 10:32:19 PM 38.8214 -102.1650 330° Northwest 369 425 43,000  Level Denver Center
Wed 10:33:21 PM 38.9056 -102.2283 330° Northwest 368 423 43,000  Level Denver Center
Wed 10:34:22 PM 38.9892 -102.2922 329° Northwest 366 421 43,000  Level Denver Center
Wed 10:35:24 PM 39.0872 -102.3658 330° Northwest 364 419 43,000  Level Denver Center
Wed 10:36:25 PM 39.1711 -102.4292 330° Northwest 364 419 43,000  Level Denver Center
Wed 10:37:27 PM 39.2694 -102.5039 330° Northwest 366 421 43,000  Level Denver Center
Wed 10:38:28 PM 39.3531 -102.5678 329° Northwest 365 420 43,000  Level Denver Center
Wed 10:39:30 PM 39.4389 -102.6336 329° Northwest 366 421 43,000  Level Denver Center
Wed 10:40:31 PM 39.5264 -102.7008 329° Northwest 366 421 43,000  Level Denver Center
Wed 10:41:32 PM 39.6122 -102.7675 329° Northwest 363 418 43,000  Level Denver Center
Wed 10:42:34 PM 39.7175 -102.8481 330° Northwest 366 421 43,000  Level Denver Center
Wed 10:43:35 PM 39.8047 -102.9161 329° Northwest 367 422 43,000  Level Denver Center
Wed 10:44:37 PM 39.8911 -102.9833 329° Northwest 363 418 43,000  Level Denver Center
Wed 10:45:38 PM 39.9775 -103.0514 329° Northwest 364 419 43,000  Level Denver Center
Wed 10:46:39 PM 40.0658 -103.1197 329° Northwest 368 423 43,000  Level Denver Center
Wed 10:47:41 PM 40.1539 -103.1889 329° Northwest 371 427 43,000  Level Denver Center
Wed 10:48:42 PM 40.2419 -103.2581 329° Northwest 370 426 43,000  Level Denver Center
Wed 10:49:43 PM 40.3289 -103.3269 329° Northwest 367 422 43,000  Level Denver Center
Wed 10:50:45 PM 40.4150 -103.3944 329° Northwest 364 419 43,000  Level Denver Center
Wed 10:51:46 PM 40.5175 -103.4764 329° Northwest 361 415 43,000  Level Denver Center
Wed 10:52:47 PM 40.6044 -103.5456 329° Northwest 365 420 43,000  Level Denver Center
Wed 10:53:49 PM 40.6908 -103.6147 329° Northwest 365 420 43,000  Level Denver Center
Wed 10:54:50 PM 40.7781 -103.6842 329° Northwest 367 422 43,000  Level Denver Center
Wed 10:55:51 PM 40.8644 -103.7536 329° Northwest 365 420 43,000  Level Denver Center
Wed 10:56:52 PM 40.9522 -103.8239 329° Northwest 370 426 43,000  Level Denver Center
Wed 10:57:54 PM 41.0542 -103.9092 328° Northwest 376 433 43,000  Level Denver Center
Wed 10:58:55 PM 41.1408 -103.9792 329° Northwest 380 437 43,000  Level Denver Center
Wed 10:59:56 PM 41.2278 -104.0492 329° Northwest 382 440 43,000  Level Denver Center
Wed 11:00:57 PM 41.3278 -104.1322 328° Northwest 380 437 43,000  Level Denver Center
Wed 11:01:58 PM 41.4136 -104.2017 329° Northwest 378 435 43,000  Level Denver Center
Wed 11:03:00 PM 41.5000 -104.2725 328° Northwest 378 435 43,000  Level Denver Center
Wed 11:04:01 PM 41.5986 -104.3544 328° Northwest 374 430 43,000  Level Denver Center
Wed 11:05:02 PM 41.6822 -104.4253 328° Northwest 372 428 43,000  Level Denver Center
Wed 11:06:03 PM 41.7814 -104.5053 329° Northwest 372 428 43,000  Level Denver Center
Wed 11:07:04 PM 41.8667 -104.5744 329° Northwest 373 429 43,000  Level Denver Center
Wed 11:08:06 PM 41.9508 -104.6456 328° Northwest 373 429 43,000  Level Denver Center
Wed 11:09:07 PM 42.0486 -104.7222 330° Northwest 364 419 43,000  Level Denver Center
Wed 11:10:08 PM 42.1311 -104.7911 328° Northwest 363 418 43,000  Level Denver Center
Wed 11:11:09 PM 42.2133 -104.8592 328° Northwest 362 417 43,000  Level Denver Center
Wed 11:12:10 PM 42.3094 -104.9381 329° Northwest 359 413 43,000  Level Denver Center
Wed 11:13:12 PM 42.3911 -105.0067 328° Northwest 359 413 43,000  Level Denver Center
Wed 11:14:13 PM 42.4744 -105.0753 329° Northwest 363 418 43,000  Level Denver Center
Wed 11:15:14 PM 42.5714 -105.1553 329° Northwest 364 419 43,000  Level Denver Center
Wed 11:16:15 PM 42.6539 -105.2247 328° Northwest 363 418 43,000  Level Denver Center
Wed 11:17:17 PM 42.7356 -105.2936 328° Northwest 361 415 43,000  Level Denver Center
Wed 11:18:18 PM 42.8311 -105.3733 329° Northwest 360 414 43,000 -393 Level Denver Center
Wed 11:19:19 PM 42.9147 -105.4433 328° Northwest 365 420 42,200 -1,230 Descending Denver Center
Wed 11:20:20 PM 43.0136 -105.5275 328° Northwest 375 432 40,500 -1,525 Descending Denver Center
Wed 11:21:21 PM 43.0975 -105.5972 329° Northwest 370 426 39,100 -1,463 Descending Denver Center
Wed 11:22:23 PM 43.1811 -105.6686 328° Northwest 370 426 37,500 -1,902 Descending Denver Center
Wed 11:23:24 PM 43.2797 -105.7542 328° Northwest 375 432 35,200 -2,066 Descending Denver Center
Wed 11:24:25 PM 43.3672 -105.8286 328° Northwest 384 442 33,300 -1,869 Descending Denver Center
Wed 11:25:26 PM 43.4581 -105.9072 328° Northwest 399 459 31,400 -2,066 Descending Denver Center
Wed 11:26:27 PM 43.5592 -105.9936 328° Northwest 383 441 29,100 -2,066 Descending Denver Center
Wed 11:27:28 PM 43.6403 -106.0647 328° Northwest 365 420 27,200 -2,000 Descending Denver Center
Wed 11:28:30 PM 43.7336 -106.1464 328° Northwest 358 412 25,000 -2,000 Descending Denver Center
Wed 11:29:31 PM 43.8186 -106.2200 328° Northwest 374 430 23,100 -1,918 Descending Denver Center
Wed 11:30:32 PM 43.9006 -106.2881 329° Northwest 363 418 21,100 -2,066 Descending Denver Center
Wed 11:31:33 PM 43.9897 -106.3681 327° Northwest 349 402 18,900 -1,967 Descending Denver Center
Wed 11:32:34 PM 44.0600 -106.4283 328° Northwest 320 368 17,100 -1,426 Descending Denver Center
Wed 11:33:35 PM 44.1244 -106.4886 326° Northwest 298 343 16,000 -1,015 Descending Denver Center
Wed 11:34:50 PM 44.2200 -106.5731 328° Northwest 300 345 14,800 -1,122 Descending Salt Lake Center
Wed 11:35:38 PM 44.2775 -106.6244 327° Northwest 304 350 13,700 -1,321 Descending Denver Center
Wed 11:36:39 PM 44.3486 -106.6858 328° Northwest 303 349 12,400 -1,279 Descending Denver Center
Wed 11:37:40 PM 44.4122 -106.7478 325° Northwest 293 337 11,100 -1,377 Descending Denver Center
Wed 11:38:41 PM 44.4700 -106.7992 328° Northwest 267 307 9,600 -885 Descending Denver Center
Wed 11:39:42 PM 44.5269 -106.8422 332° Northwest 263 303 9,300 -295 Descending Denver Center

Login

Don't have an account? Register now (free) for customized features, flight alerts, and more!